sensor_id;sensor_type;location;lat;lon;timestamp;temperature;humidity
28947;DHT22;16052;50.930;5.326;2022-12-18T00:01:29;-2.10;99.90
28947;DHT22;16052;50.930;5.326;2022-12-18T00:03:57;-2.00;99.90
28947;DHT22;16052;50.930;5.326;2022-12-18T00:06:24;-1.80;99.90
28947;DHT22;16052;50.930;5.326;2022-12-18T00:08:50;-1.70;97.90
28947;DHT22;16052;50.930;5.326;2022-12-18T00:11:22;-1.50;99.90
28947;DHT22;16052;50.930;5.326;2022-12-18T00:13:49;-1.40;95.30
28947;DHT22;16052;50.930;5.326;2022-12-18T00:16:20;-1.10;92.80
28947;DHT22;16052;50.930;5.326;2022-12-18T00:18:47;-0.80;88.80
28947;DHT22;16052;50.930;5.326;2022-12-18T00:21:14;-0.50;76.80
28947;DHT22;16052;50.930;5.326;2022-12-18T00:23:41;-0.50;69.90
28947;DHT22;16052;50.930;5.326;2022-12-18T00:26:29;-0.50;68.00
28947;DHT22;16052;50.930;5.326;2022-12-18T00:28:58;-0.30;64.50
28947;DHT22;16052;50.930;5.326;2022-12-18T00:31:25;-0.20;54.80
28947;DHT22;16052;50.930;5.326;2022-12-18T00:33:51;-0.10;48.50
28947;DHT22;16052;50.930;5.326;2022-12-18T00:36:20;-0.10;48.20
28947;DHT22;16052;50.930;5.326;2022-12-18T00:38:46;-0.30;49.30
28947;DHT22;16052;50.930;5.326;2022-12-18T00:41:13;-0.50;55.70
28947;DHT22;16052;50.930;5.326;2022-12-18T00:43:59;-1.10;64.10
28947;DHT22;16052;50.930;5.326;2022-12-18T00:46:25;-1.50;75.40
28947;DHT22;16052;50.930;5.326;2022-12-18T00:48:51;-1.50;82.00
28947;DHT22;16052;50.930;5.326;2022-12-18T00:51:16;-1.40;84.10
28947;DHT22;16052;50.930;5.326;2022-12-18T00:53:42;-1.40;80.10
28947;DHT22;16052;50.930;5.326;2022-12-18T00:56:07;-1.20;78.90
28947;DHT22;16052;50.930;5.326;2022-12-18T00:58:33;-0.80;66.40
28947;DHT22;16052;50.930;5.326;2022-12-18T01:00:59;-0.70;56.90
28947;DHT22;16052;50.930;5.326;2022-12-18T01:03:24;-0.80;55.80
28947;DHT22;16052;50.930;5.326;2022-12-18T01:05:50;-0.80;61.30
28947;DHT22;16052;50.930;5.326;2022-12-18T01:08:15;-0.70;54.70
28947;DHT22;16052;50.930;5.326;2022-12-18T01:10:41;-0.50;49.00
28947;DHT22;16052;50.930;5.326;2022-12-18T01:13:07;-0.50;47.00
28947;DHT22;16052;50.930;5.326;2022-12-18T01:15:34;-0.70;47.50
28947;DHT22;16052;50.930;5.326;2022-12-18T01:18:00;-1.00;57.00
28947;DHT22;16052;50.930;5.326;2022-12-18T01:20:25;-0.90;62.80
28947;DHT22;16052;50.930;5.326;2022-12-18T01:22:51;-0.70;52.00
28947;DHT22;16052;50.930;5.326;2022-12-18T01:25:16;-0.70;43.90
28947;DHT22;16052;50.930;5.326;2022-12-18T01:27:43;-0.80;49.80
28947;DHT22;16052;50.930;5.326;2022-12-18T01:30:09;-0.70;49.30
28947;DHT22;16052;50.930;5.326;2022-12-18T01:32:35;-0.70;45.80
28947;DHT22;16052;50.930;5.326;2022-12-18T01:35:00;-0.80;49.80
28947;DHT22;16052;50.930;5.326;2022-12-18T01:37:26;-0.60;47.00
28947;DHT22;16052;50.930;5.326;2022-12-18T01:39:52;-0.50;41.10
28947;DHT22;16052;50.930;5.326;2022-12-18T01:42:19;-0.50;38.80
28947;DHT22;16052;50.930;5.326;2022-12-18T01:50:39;-1.10;51.20
28947;DHT22;16052;50.930;5.326;2022-12-18T01:53:13;-1.00;50.60
28947;DHT22;16052;50.930;5.326;2022-12-18T01:55:48;-0.80;48.80
28947;DHT22;16052;50.930;5.326;2022-12-18T01:58:15;-1.20;47.40
28947;DHT22;16052;50.930;5.326;2022-12-18T02:00:41;-1.00;55.20
28947;DHT22;16052;50.930;5.326;2022-12-18T02:03:07;-0.80;46.10
28947;DHT22;16052;50.930;5.326;2022-12-18T02:11:05;-0.90;49.50
28947;DHT22;16052;50.930;5.326;2022-12-18T02:19:18;-0.90;45.60
28947;DHT22;16052;50.930;5.326;2022-12-18T02:24:54;-1.00;52.90
28947;DHT22;16052;50.930;5.326;2022-12-18T02:27:24;-0.90;48.00
28947;DHT22;16052;50.930;5.326;2022-12-18T02:29:54;-1.00;46.90
28947;DHT22;16052;50.930;5.326;2022-12-18T02:32:25;-1.00;50.10
28947;DHT22;16052;50.930;5.326;2022-12-18T02:34:55;-1.00;52.00
28947;DHT22;16052;50.930;5.326;2022-12-18T02:37:23;-1.00;50.00
28947;DHT22;16052;50.930;5.326;2022-12-18T02:39:52;-0.90;48.00
28947;DHT22;16052;50.930;5.326;2022-12-18T02:42:18;-0.90;46.20
28947;DHT22;16052;50.930;5.326;2022-12-18T02:44:46;-1.00;44.40
28947;DHT22;16052;50.930;5.326;2022-12-18T02:47:14;-1.10;47.00
28947;DHT22;16052;50.930;5.326;2022-12-18T02:58:38;-1.30;47.40
28947;DHT22;16052;50.930;5.326;2022-12-18T03:01:21;-1.30;50.70
28947;DHT22;16052;50.930;5.326;2022-12-18T03:03:55;-1.30;51.10
28947;DHT22;16052;50.930;5.326;2022-12-18T03:08:52;-1.40;49.00
28947;DHT22;16052;50.930;5.326;2022-12-18T03:11:19;-1.30;52.10
28947;DHT22;16052;50.930;5.326;2022-12-18T03:14:07;-1.20;41.60
28947;DHT22;16052;50.930;5.326;2022-12-18T03:16:34;-1.30;47.50
28947;DHT22;16052;50.930;5.326;2022-12-18T03:19:03;-1.50;47.60
28947;DHT22;16052;50.930;5.326;2022-12-18T03:21:37;-1.40;55.70
28947;DHT22;16052;50.930;5.326;2022-12-18T03:24:09;-1.30;50.70
28947;DHT22;16052;50.930;5.326;2022-12-18T03:26:37;-1.30;45.70
28947;DHT22;16052;50.930;5.326;2022-12-18T03:29:14;-1.50;47.10
28947;DHT22;16052;50.930;5.326;2022-12-18T03:31:44;-1.70;52.60
28947;DHT22;16052;50.930;5.326;2022-12-18T03:34:19;-1.70;55.00
28947;DHT22;16052;50.930;5.326;2022-12-18T03:36:47;-1.30;53.50
28947;DHT22;16052;50.930;5.326;2022-12-18T03:39:12;-1.20;42.30
28947;DHT22;16052;50.930;5.326;2022-12-18T03:41:47;-1.30;38.60
28947;DHT22;16052;50.930;5.326;2022-12-18T03:44:33;-1.60;47.00
28947;DHT22;16052;50.930;5.326;2022-12-18T03:52:48;-1.70;50.90
28947;DHT22;16052;50.930;5.326;2022-12-18T03:55:18;-2.10;48.20
28947;DHT22;16052;50.930;5.326;2022-12-18T03:57:46;-2.00;53.20
28947;DHT22;16052;50.930;5.326;2022-12-18T04:00:17;-2.20;51.10
28947;DHT22;16052;50.930;5.326;2022-12-18T04:02:47;-2.40;59.50
28947;DHT22;16052;50.930;5.326;2022-12-18T04:05:15;-2.60;64.40
28947;DHT22;16052;50.930;5.326;2022-12-18T04:07:43;-2.80;71.90
28947;DHT22;16052;50.930;5.326;2022-12-18T04:10:10;-2.70;77.00
28947;DHT22;16052;50.930;5.326;2022-12-18T04:12:38;-2.30;73.50
28947;DHT22;16052;50.930;5.326;2022-12-18T04:15:05;-1.70;52.60
28947;DHT22;16052;50.930;5.326;2022-12-18T04:17:31;-1.60;41.50
28947;DHT22;16052;50.930;5.326;2022-12-18T04:19:56;-2.10;51.60
28947;DHT22;16052;50.930;5.326;2022-12-18T04:22:22;-2.50;56.90
28947;DHT22;16052;50.930;5.326;2022-12-18T04:24:48;-2.80;68.60
28947;DHT22;16052;50.930;5.326;2022-12-18T04:27:13;-2.90;77.70
28947;DHT22;16052;50.930;5.326;2022-12-18T04:29:39;-2.40;76.60
28947;DHT22;16052;50.930;5.326;2022-12-18T04:32:05;-2.00;55.30
28947;DHT22;16052;50.930;5.326;2022-12-18T04:34:32;-1.60;38.90
28947;DHT22;16052;50.930;5.326;2022-12-18T04:36:58;-1.40;28.80
28947;DHT22;16052;50.930;5.326;2022-12-18T04:39:24;-1.50;29.70
28947;DHT22;16052;50.930;5.326;2022-12-18T04:41:50;-1.40;29.70
28947;DHT22;16052;50.930;5.326;2022-12-18T04:44:16;-1.70;33.70
28947;DHT22;16052;50.930;5.326;2022-12-18T04:46:41;-1.90;40.80
28947;DHT22;16052;50.930;5.326;2022-12-18T04:49:08;-1.60;42.10
28947;DHT22;16052;50.930;5.326;2022-12-18T04:51:36;-1.30;25.00
28947;DHT22;16052;50.930;5.326;2022-12-18T04:54:01;-1.20;17.80
28947;DHT22;16052;50.930;5.326;2022-12-18T04:56:27;-1.40;19.40
28947;DHT22;16052;50.930;5.326;2022-12-18T04:58:53;-1.50;21.90
28947;DHT22;16052;50.930;5.326;2022-12-18T05:01:18;-1.70;25.10
28947;DHT22;16052;50.930;5.326;2022-12-18T05:03:44;-1.70;29.40
28947;DHT22;16052;50.930;5.326;2022-12-18T05:06:10;-1.60;29.60
28947;DHT22;16052;50.930;5.326;2022-12-18T05:08:35;-1.70;25.80
28947;DHT22;16052;50.930;5.326;2022-12-18T05:11:07;-1.80;27.00
28947;DHT22;16052;50.930;5.326;2022-12-18T05:13:34;-1.90;31.70
28947;DHT22;16052;50.930;5.326;2022-12-18T05:16:00;-1.70;29.00
28947;DHT22;16052;50.930;5.326;2022-12-18T05:18:26;-1.80;28.50
28947;DHT22;16052;50.930;5.326;2022-12-18T05:20:53;-1.70;30.30
28947;DHT22;16052;50.930;5.326;2022-12-18T05:23:20;-1.80;30.00
28947;DHT22;16052;50.930;5.326;2022-12-18T05:25:57;-1.90;35.10
28947;DHT22;16052;50.930;5.326;2022-12-18T05:28:24;-1.80;34.10
28947;DHT22;16052;50.930;5.326;2022-12-18T05:30:52;-1.80;35.80
28947;DHT22;16052;50.930;5.326;2022-12-18T05:33:19;-1.90;34.60
28947;DHT22;16052;50.930;5.326;2022-12-18T05:35:53;-1.70;33.00
28947;DHT22;16052;50.930;5.326;2022-12-18T05:38:25;-1.50;20.60
28947;DHT22;16052;50.930;5.326;2022-12-18T05:40:51;-1.50;17.10
28947;DHT22;16052;50.930;5.326;2022-12-18T05:43:18;-1.40;14.60
28947;DHT22;16052;50.930;5.326;2022-12-18T05:45:44;-1.50;15.40
28947;DHT22;16052;50.930;5.326;2022-12-18T05:48:13;-1.50;15.90
28947;DHT22;16052;50.930;5.326;2022-12-18T05:50:40;-1.40;11.00
28947;DHT22;16052;50.930;5.326;2022-12-18T05:53:07;-1.50;9.90
28947;DHT22;16052;50.930;5.326;2022-12-18T05:55:34;-1.60;11.90
28947;DHT22;16052;50.930;5.326;2022-12-18T05:58:03;-1.70;16.00
28947;DHT22;16052;50.930;5.326;2022-12-18T06:00:31;-1.90;17.90
28947;DHT22;16052;50.930;5.326;2022-12-18T06:02:58;-1.90;20.90
28947;DHT22;16052;50.930;5.326;2022-12-18T06:05:25;-2.00;26.40
28947;DHT22;16052;50.930;5.326;2022-12-18T06:07:50;-1.90;23.60
28947;DHT22;16052;50.930;5.326;2022-12-18T06:10:16;-1.80;20.50
28947;DHT22;16052;50.930;5.326;2022-12-18T06:12:42;-1.80;18.00
28947;DHT22;16052;50.930;5.326;2022-12-18T06:15:08;-1.80;19.60
28947;DHT22;16052;50.930;5.326;2022-12-18T06:17:34;-1.80;19.50
28947;DHT22;16052;50.930;5.326;2022-12-18T06:20:00;-1.80;19.00
28947;DHT22;16052;50.930;5.326;2022-12-18T06:22:26;-2.00;23.50
28947;DHT22;16052;50.930;5.326;2022-12-18T06:24:52;-1.90;19.60
28947;DHT22;16052;50.930;5.326;2022-12-18T06:27:18;-1.90;18.30
28947;DHT22;16052;50.930;5.326;2022-12-18T06:29:43;-2.00;22.30
28947;DHT22;16052;50.930;5.326;2022-12-18T06:32:09;-2.10;22.70
28947;DHT22;16052;50.930;5.326;2022-12-18T06:34:37;-2.10;26.70
28947;DHT22;16052;50.930;5.326;2022-12-18T06:37:03;-2.20;24.90
28947;DHT22;16052;50.930;5.326;2022-12-18T06:39:29;-2.10;24.40
28947;DHT22;16052;50.930;5.326;2022-12-18T06:41:55;-2.00;22.50
28947;DHT22;16052;50.930;5.326;2022-12-18T06:44:21;-1.90;21.30
28947;DHT22;16052;50.930;5.326;2022-12-18T06:46:46;-2.00;20.80
28947;DHT22;16052;50.930;5.326;2022-12-18T06:49:12;-2.10;21.90
28947;DHT22;16052;50.930;5.326;2022-12-18T06:51:39;-2.00;22.50
28947;DHT22;16052;50.930;5.326;2022-12-18T06:54:04;-1.90;18.40
28947;DHT22;16052;50.930;5.326;2022-12-18T06:56:30;-2.00;17.90
28947;DHT22;16052;50.930;5.326;2022-12-18T06:58:56;-2.00;16.70
28947;DHT22;16052;50.930;5.326;2022-12-18T07:01:22;-1.90;14.50
28947;DHT22;16052;50.930;5.326;2022-12-18T07:03:55;-2.00;15.70
28947;DHT22;16052;50.930;5.326;2022-12-18T07:06:24;-2.10;18.40
28947;DHT22;16052;50.930;5.326;2022-12-18T07:08:50;-2.10;21.70
28947;DHT22;16052;50.930;5.326;2022-12-18T07:11:18;-2.10;22.40
28947;DHT22;16052;50.930;5.326;2022-12-18T07:13:44;-2.10;23.60
28947;DHT22;16052;50.930;5.326;2022-12-18T07:16:16;-2.10;23.60
28947;DHT22;16052;50.930;5.326;2022-12-18T07:18:43;-2.10;23.40
28947;DHT22;16052;50.930;5.326;2022-12-18T07:21:11;-2.20;26.00
28947;DHT22;16052;50.930;5.326;2022-12-18T07:23:40;-2.20;28.80
28947;DHT22;16052;50.930;5.326;2022-12-18T07:26:09;-2.20;30.80
28947;DHT22;16052;50.930;5.326;2022-12-18T07:28:36;-2.10;28.40
28947;DHT22;16052;50.930;5.326;2022-12-18T07:31:09;-2.10;29.60
28947;DHT22;16052;50.930;5.326;2022-12-18T07:33:35;-2.30;31.70
28947;DHT22;16052;50.930;5.326;2022-12-18T07:36:02;-2.40;36.40
28947;DHT22;16052;50.930;5.326;2022-12-18T07:38:29;-2.60;45.80
28947;DHT22;16052;50.930;5.326;2022-12-18T07:40:59;-2.50;41.70
28947;DHT22;16052;50.930;5.326;2022-12-18T07:43:25;-2.30;37.00
28947;DHT22;16052;50.930;5.326;2022-12-18T07:45:51;-2.30;36.70
28947;DHT22;16052;50.930;5.326;2022-12-18T07:48:17;-2.20;37.20
28947;DHT22;16052;50.930;5.326;2022-12-18T07:50:44;-2.10;33.50
28947;DHT22;16052;50.930;5.326;2022-12-18T07:53:09;-1.60;26.90
28947;DHT22;16052;50.930;5.326;2022-12-18T07:55:35;-1.10;18.70
28947;DHT22;16052;50.930;5.326;2022-12-18T07:58:02;-0.60;11.20
28947;DHT22;16052;50.930;5.326;2022-12-18T08:00:28;-0.10;1.00
28947;DHT22;16052;50.930;5.326;2022-12-18T08:02:53;0.60;1.00
28947;DHT22;16052;50.930;5.326;2022-12-18T08:05:19;1.10;1.00
28947;DHT22;16052;50.930;5.326;2022-12-18T08:07:46;1.30;1.00
28947;DHT22;16052;50.930;5.326;2022-12-18T08:10:13;1.10;1.00
28947;DHT22;16052;50.930;5.326;2022-12-18T08:12:39;0.70;1.00
28947;DHT22;16052;50.930;5.326;2022-12-18T08:15:05;0.30;1.00
28947;DHT22;16052;50.930;5.326;2022-12-18T08:17:32;-0.30;1.00
28947;DHT22;16052;50.930;5.326;2022-12-18T08:19:58;-0.40;1.00
28947;DHT22;16052;50.930;5.326;2022-12-18T08:22:24;-0.20;1.00
28947;DHT22;16052;50.930;5.326;2022-12-18T08:24:49;0.30;1.00
28947;DHT22;16052;50.930;5.326;2022-12-18T08:27:15;0.50;1.00
28947;DHT22;16052;50.930;5.326;2022-12-18T08:29:41;0.70;1.00
28947;DHT22;16052;50.930;5.326;2022-12-18T08:32:07;1.00;1.00
28947;DHT22;16052;50.930;5.326;2022-12-18T08:34:32;1.40;1.00
28947;DHT22;16052;50.930;5.326;2022-12-18T08:36:58;2.00;1.00
28947;DHT22;16052;50.930;5.326;2022-12-18T08:39:23;2.50;1.00
28947;DHT22;16052;50.930;5.326;2022-12-18T08:41:49;2.70;1.00
28947;DHT22;16052;50.930;5.326;2022-12-18T08:44:33;2.40;1.00
28947;DHT22;16052;50.930;5.326;2022-12-18T08:47:08;2.40;1.00
28947;DHT22;16052;50.930;5.326;2022-12-18T08:49:34;2.50;1.00
28947;DHT22;16052;50.930;5.326;2022-12-18T08:52:00;2.30;1.00
28947;DHT22;16052;50.930;5.326;2022-12-18T08:54:26;1.90;1.00
28947;DHT22;16052;50.930;5.326;2022-12-18T08:56:52;1.70;1.00
28947;DHT22;16052;50.930;5.326;2022-12-18T08:59:18;1.60;1.00
28947;DHT22;16052;50.930;5.326;2022-12-18T09:01:46;1.40;1.00
28947;DHT22;16052;50.930;5.326;2022-12-18T09:04:15;1.40;1.00
28947;DHT22;16052;50.930;5.326;2022-12-18T09:06:42;1.30;1.00
28947;DHT22;16052;50.930;5.326;2022-12-18T09:09:09;1.00;1.00
28947;DHT22;16052;50.930;5.326;2022-12-18T09:11:35;1.00;1.00
28947;DHT22;16052;50.930;5.326;2022-12-18T09:14:01;0.90;1.00
28947;DHT22;16052;50.930;5.326;2022-12-18T09:16:29;1.00;1.00
28947;DHT22;16052;50.930;5.326;2022-12-18T09:18:55;0.90;1.00
28947;DHT22;16052;50.930;5.326;2022-12-18T09:21:25;0.90;1.00
28947;DHT22;16052;50.930;5.326;2022-12-18T09:23:52;0.80;1.00
28947;DHT22;16052;50.930;5.326;2022-12-18T09:26:18;0.80;1.00
28947;DHT22;16052;50.930;5.326;2022-12-18T09:28:44;0.70;1.00
28947;DHT22;16052;50.930;5.326;2022-12-18T09:31:11;0.70;1.00
28947;DHT22;16052;50.930;5.326;2022-12-18T09:33:38;0.60;1.00
28947;DHT22;16052;50.930;5.326;2022-12-18T09:36:06;0.60;1.00
28947;DHT22;16052;50.930;5.326;2022-12-18T09:38:33;0.50;1.00
28947;DHT22;16052;50.930;5.326;2022-12-18T09:41:17;0.60;1.00
28947;DHT22;16052;50.930;5.326;2022-12-18T09:43:51;0.60;1.00
28947;DHT22;16052;50.930;5.326;2022-12-18T09:46:26;0.60;1.00
28947;DHT22;16052;50.930;5.326;2022-12-18T09:48:54;0.30;1.00
28947;DHT22;16052;50.930;5.326;2022-12-18T09:51:22;0.00;1.00
28947;DHT22;16052;50.930;5.326;2022-12-18T09:54:03;-0.20;1.00
28947;DHT22;16052;50.930;5.326;2022-12-18T09:56:36;-0.20;1.00
28947;DHT22;16052;50.930;5.326;2022-12-18T09:59:25;-0.40;10.30
28947;DHT22;16052;50.930;5.326;2022-12-18T10:01:52;-0.50;14.70
28947;DHT22;16052;50.930;5.326;2022-12-18T10:04:18;-0.30;13.90
28947;DHT22;16052;50.930;5.326;2022-12-18T10:07:12;-0.10;8.90
28947;DHT22;16052;50.930;5.326;2022-12-18T10:12:15;0.30;1.00
28947;DHT22;16052;50.930;5.326;2022-12-18T10:17:59;0.40;1.00
28947;DHT22;16052;50.930;5.326;2022-12-18T10:20:45;0.40;1.00
28947;DHT22;16052;50.930;5.326;2022-12-18T10:26:05;0.10;6.70
28947;DHT22;16052;50.930;5.326;2022-12-18T10:28:34;0.10;7.20
28947;DHT22;16052;50.930;5.326;2022-12-18T10:31:00;0.10;8.10
28947;DHT22;16052;50.930;5.326;2022-12-18T10:33:29;-0.30;21.20
28947;DHT22;16052;50.930;5.326;2022-12-18T10:35:56;-0.40;22.90
28947;DHT22;16052;50.930;5.326;2022-12-18T10:38:24;-0.50;26.50
28947;DHT22;16052;50.930;5.326;2022-12-18T10:46:04;0.00;25.90
28947;DHT22;16052;50.930;5.326;2022-12-18T10:54:06;0.70;6.20
28947;DHT22;16052;50.930;5.326;2022-12-18T10:56:38;0.60;9.60
28947;DHT22;16052;50.930;5.326;2022-12-18T10:59:07;0.70;9.90
28947;DHT22;16052;50.930;5.326;2022-12-18T11:04:34;0.60;12.00
28947;DHT22;16052;50.930;5.326;2022-12-18T11:07:07;0.60;14.60
28947;DHT22;16052;50.930;5.326;2022-12-18T11:09:35;0.70;17.20
28947;DHT22;16052;50.930;5.326;2022-12-18T11:14:47;0.70;18.50
28947;DHT22;16052;50.930;5.326;2022-12-18T11:17:21;0.80;19.70
28947;DHT22;16052;50.930;5.326;2022-12-18T11:19:59;0.80;20.80
28947;DHT22;16052;50.930;5.326;2022-12-18T11:22:26;0.80;21.20
28947;DHT22;16052;50.930;5.326;2022-12-18T11:25:03;0.80;22.50
28947;DHT22;16052;50.930;5.326;2022-12-18T11:27:31;0.70;24.40
28947;DHT22;16052;50.930;5.326;2022-12-18T11:30:22;0.80;23.50
28947;DHT22;16052;50.930;5.326;2022-12-18T11:33:10;0.80;25.40
28947;DHT22;16052;50.930;5.326;2022-12-18T11:35:51;0.60;29.00
28947;DHT22;16052;50.930;5.326;2022-12-18T11:38:27;0.80;28.80
28947;DHT22;16052;50.930;5.326;2022-12-18T11:43:37;1.30;16.30
28947;DHT22;16052;50.930;5.326;2022-12-18T11:46:17;1.40;14.70
28947;DHT22;16052;50.930;5.326;2022-12-18T11:49:06;1.20;17.30
28947;DHT22;16052;50.930;5.326;2022-12-18T11:51:46;1.30;22.80
28947;DHT22;16052;50.930;5.326;2022-12-18T11:54:15;1.40;39.10
28947;DHT22;16052;50.930;5.326;2022-12-18T11:56:51;1.70;29.10
28947;DHT22;16052;50.930;5.326;2022-12-18T12:08:57;1.60;16.20
28947;DHT22;16052;50.930;5.326;2022-12-18T12:14:51;1.50;19.60
28947;DHT22;16052;50.930;5.326;2022-12-18T12:17:27;1.60;20.60
28947;DHT22;16052;50.930;5.326;2022-12-18T12:22:56;1.40;21.00
28947;DHT22;16052;50.930;5.326;2022-12-18T12:25:37;1.30;23.90
28947;DHT22;16052;50.930;5.326;2022-12-18T12:37:20;1.20;31.90
28947;DHT22;16052;50.930;5.326;2022-12-18T12:39:22;1.20;38.50
28947;DHT22;16052;50.930;5.326;2022-12-18T12:41:51;1.40;32.00
28947;DHT22;16052;50.930;5.326;2022-12-18T12:44:47;1.50;31.10
28947;DHT22;16052;50.930;5.326;2022-12-18T12:47:20;1.40;36.50
28947;DHT22;16052;50.930;5.326;2022-12-18T12:49:49;1.50;33.00
28947;DHT22;16052;50.930;5.326;2022-12-18T12:52:22;1.60;30.30
28947;DHT22;16052;50.930;5.326;2022-12-18T12:54:52;1.40;31.20
28947;DHT22;16052;50.930;5.326;2022-12-18T12:57:34;1.40;35.10
28947;DHT22;16052;50.930;5.326;2022-12-18T13:00:12;1.40;36.60
28947;DHT22;16052;50.930;5.326;2022-12-18T13:03:07;1.60;35.20
28947;DHT22;16052;50.930;5.326;2022-12-18T13:08:31;2.10;20.10
28947;DHT22;16052;50.930;5.326;2022-12-18T13:11:01;2.00;27.00
28947;DHT22;16052;50.930;5.326;2022-12-18T13:13:55;2.10;21.20
28947;DHT22;16052;50.930;5.326;2022-12-18T13:16:25;1.90;30.10
28947;DHT22;16052;50.930;5.326;2022-12-18T13:18:54;1.90;33.50
28947;DHT22;16052;50.930;5.326;2022-12-18T13:21:40;2.10;28.20
28947;DHT22;16052;50.930;5.326;2022-12-18T13:24:27;2.10;26.40
28947;DHT22;16052;50.930;5.326;2022-12-18T13:26:54;2.00;28.00
28947;DHT22;16052;50.930;5.326;2022-12-18T13:32:19;2.40;21.50
28947;DHT22;16052;50.930;5.326;2022-12-18T13:34:45;2.40;20.40
28947;DHT22;16052;50.930;5.326;2022-12-18T13:37:40;2.20;16.60
28947;DHT22;16052;50.930;5.326;2022-12-18T13:45:47;1.70;32.70
28947;DHT22;16052;50.930;5.326;2022-12-18T13:48:21;1.80;34.20
28947;DHT22;16052;50.930;5.326;2022-12-18T13:51:07;2.00;25.50
28947;DHT22;16052;50.930;5.326;2022-12-18T13:53:38;2.20;28.60
28947;DHT22;16052;50.930;5.326;2022-12-18T13:56:05;2.10;23.20
28947;DHT22;16052;50.930;5.326;2022-12-18T13:58:32;2.00;25.80
28947;DHT22;16052;50.930;5.326;2022-12-18T14:00:58;1.80;28.00
28947;DHT22;16052;50.930;5.326;2022-12-18T14:03:29;1.80;30.00
28947;DHT22;16052;50.930;5.326;2022-12-18T14:06:07;1.70;34.30
28947;DHT22;16052;50.930;5.326;2022-12-18T14:08:38;1.60;36.30
28947;DHT22;16052;50.930;5.326;2022-12-18T14:11:05;1.50;41.70
28947;DHT22;16052;50.930;5.326;2022-12-18T14:13:36;1.60;45.60
28947;DHT22;16052;50.930;5.326;2022-12-18T14:16:04;1.90;35.60
28947;DHT22;16052;50.930;5.326;2022-12-18T14:18:51;2.00;32.00
28947;DHT22;16052;50.930;5.326;2022-12-18T14:21:26;1.70;40.10
28947;DHT22;16052;50.930;5.326;2022-12-18T14:26:33;1.80;43.70
28947;DHT22;16052;50.930;5.326;2022-12-18T14:29:17;1.90;45.30
28947;DHT22;16052;50.930;5.326;2022-12-18T14:31:43;2.00;39.50
28947;DHT22;16052;50.930;5.326;2022-12-18T14:34:18;1.90;40.00
28947;DHT22;16052;50.930;5.326;2022-12-18T14:36:53;1.90;44.70
28947;DHT22;16052;50.930;5.326;2022-12-18T14:39:21;2.00;38.70
28947;DHT22;16052;50.930;5.326;2022-12-18T14:41:48;2.10;41.10
28947;DHT22;16052;50.930;5.326;2022-12-18T14:44:16;2.10;36.30
28947;DHT22;16052;50.930;5.326;2022-12-18T14:46:43;2.00;43.00
28947;DHT22;16052;50.930;5.326;2022-12-18T14:49:26;2.10;36.70
28947;DHT22;16052;50.930;5.326;2022-12-18T14:52:02;2.00;29.60
28947;DHT22;16052;50.930;5.326;2022-12-18T14:54:29;2.00;26.50
28947;DHT22;16052;50.930;5.326;2022-12-18T14:57:25;1.90;25.50
28947;DHT22;16052;50.930;5.326;2022-12-18T15:00:02;2.00;24.50
28947;DHT22;16052;50.930;5.326;2022-12-18T15:02:29;1.90;26.00
28947;DHT22;16052;50.930;5.326;2022-12-18T15:05:18;2.00;23.80
28947;DHT22;16052;50.930;5.326;2022-12-18T15:07:53;2.00;25.70
28947;DHT22;16052;50.930;5.326;2022-12-18T15:10:33;2.00;22.40
28947;DHT22;16052;50.930;5.326;2022-12-18T15:20:45;1.90;21.10
28947;DHT22;16052;50.930;5.326;2022-12-18T15:23:31;1.90;25.30
28947;DHT22;16052;50.930;5.326;2022-12-18T15:26:04;1.90;24.90
28947;DHT22;16052;50.930;5.326;2022-12-18T15:28:46;2.00;23.50
28947;DHT22;16052;50.930;5.326;2022-12-18T15:33:42;2.20;19.60
28947;DHT22;16052;50.930;5.326;2022-12-18T15:36:14;2.50;47.80
28947;DHT22;16052;50.930;5.326;2022-12-18T15:38:40;2.60;14.80
28947;DHT22;16052;50.930;5.326;2022-12-18T15:41:13;2.40;10.20
28947;DHT22;16052;50.930;5.326;2022-12-18T15:43:40;2.40;10.90
28947;DHT22;16052;50.930;5.326;2022-12-18T15:46:15;2.30;11.80
28947;DHT22;16052;50.930;5.326;2022-12-18T15:48:46;2.20;15.80
28947;DHT22;16052;50.930;5.326;2022-12-18T15:51:20;2.20;14.60
28947;DHT22;16052;50.930;5.326;2022-12-18T15:53:47;2.10;13.10
28947;DHT22;16052;50.930;5.326;2022-12-18T15:56:14;2.20;12.50
28947;DHT22;16052;50.930;5.326;2022-12-18T15:59:01;2.30;10.50
28947;DHT22;16052;50.930;5.326;2022-12-18T16:01:29;2.40;6.70
28947;DHT22;16052;50.930;5.326;2022-12-18T16:03:55;2.40;4.10
28947;DHT22;16052;50.930;5.326;2022-12-18T16:06:22;2.40;3.10
28947;DHT22;16052;50.930;5.326;2022-12-18T16:08:49;2.50;5.10
28947;DHT22;16052;50.930;5.326;2022-12-18T16:11:29;2.40;6.30
28947;DHT22;16052;50.930;5.326;2022-12-18T16:14:20;2.30;6.30
28947;DHT22;16052;50.930;5.326;2022-12-18T16:16:48;2.30;9.40
28947;DHT22;16052;50.930;5.326;2022-12-18T16:19:14;2.20;7.40
28947;DHT22;16052;50.930;5.326;2022-12-18T16:21:40;2.30;6.30
28947;DHT22;16052;50.930;5.326;2022-12-18T16:24:16;2.30;4.80
28947;DHT22;16052;50.930;5.326;2022-12-18T16:26:43;2.30;5.60
28947;DHT22;16052;50.930;5.326;2022-12-18T16:29:09;2.30;1.80
28947;DHT22;16052;50.930;5.326;2022-12-18T16:31:35;2.30;5.10
28947;DHT22;16052;50.930;5.326;2022-12-18T16:36:50;2.20;3.90
28947;DHT22;16052;50.930;5.326;2022-12-18T16:39:16;2.30;6.70
28947;DHT22;16052;50.930;5.326;2022-12-18T16:41:42;2.20;6.90
28947;DHT22;16052;50.930;5.326;2022-12-18T16:44:19;2.30;1.00
28947;DHT22;16052;50.930;5.326;2022-12-18T16:46:47;2.30;1.00
28947;DHT22;16052;50.930;5.326;2022-12-18T16:49:18;2.30;1.00
28947;DHT22;16052;50.930;5.326;2022-12-18T16:51:46;2.20;1.00
28947;DHT22;16052;50.930;5.326;2022-12-18T16:54:19;2.20;2.80
28947;DHT22;16052;50.930;5.326;2022-12-18T16:56:44;2.30;2.90
28947;DHT22;16052;50.930;5.326;2022-12-18T16:59:12;2.30;3.20
28947;DHT22;16052;50.930;5.326;2022-12-18T17:01:38;2.50;9.10
28947;DHT22;16052;50.930;5.326;2022-12-18T17:04:06;2.50;7.50
28947;DHT22;16052;50.930;5.326;2022-12-18T17:06:34;2.60;6.60
28947;DHT22;16052;50.930;5.326;2022-12-18T17:09:04;2.50;9.90
28947;DHT22;16052;50.930;5.326;2022-12-18T17:11:32;2.50;13.30
28947;DHT22;16052;50.930;5.326;2022-12-18T17:14:04;2.60;10.10
28947;DHT22;16052;50.930;5.326;2022-12-18T17:16:30;2.70;6.50
28947;DHT22;16052;50.930;5.326;2022-12-18T17:18:57;2.70;7.20
28947;DHT22;16052;50.930;5.326;2022-12-18T17:21:23;2.60;10.70
28947;DHT22;16052;50.930;5.326;2022-12-18T17:23:49;2.70;6.10
28947;DHT22;16052;50.930;5.326;2022-12-18T17:26:15;2.80;1.00
28947;DHT22;16052;50.930;5.326;2022-12-18T17:28:41;2.90;1.00
28947;DHT22;16052;50.930;5.326;2022-12-18T17:31:27;2.90;1.00
28947;DHT22;16052;50.930;5.326;2022-12-18T17:33:53;2.70;1.00
28947;DHT22;16052;50.930;5.326;2022-12-18T17:36:20;2.80;6.40
28947;DHT22;16052;50.930;5.326;2022-12-18T17:38:50;2.80;4.00
28947;DHT22;16052;50.930;5.326;2022-12-18T17:41:17;2.80;4.30
28947;DHT22;16052;50.930;5.326;2022-12-18T17:43:42;3.00;1.30
28947;DHT22;16052;50.930;5.326;2022-12-18T17:46:12;3.20;1.00
28947;DHT22;16052;50.930;5.326;2022-12-18T17:48:39;3.20;1.00
28947;DHT22;16052;50.930;5.326;2022-12-18T17:51:07;3.20;1.00
28947;DHT22;16052;50.930;5.326;2022-12-18T17:53:34;2.90;1.00
28947;DHT22;16052;50.930;5.326;2022-12-18T17:56:00;3.00;2.10